createdAt,value
2022-12-08T00:02:03.702Z,6.37
2022-12-08T00:04:52.515Z,8.60
2022-12-08T00:07:39.730Z,5.83
2022-12-08T00:10:39.868Z,10.07
2022-12-08T00:12:57.898Z,5.33
2022-12-08T00:15:26.333Z,5.30
2022-12-08T00:17:54.675Z,8.33
2022-12-08T00:20:22.977Z,7.27
2022-12-08T00:22:52.504Z,10.93
2022-12-08T00:25:20.903Z,6.87
2022-12-08T00:27:49.357Z,6.13
2022-12-08T00:30:17.722Z,6.50
2022-12-08T00:32:46.349Z,4.50
2022-12-08T00:35:14.875Z,7.53
2022-12-08T00:37:43.399Z,6.53
2022-12-08T00:40:13.358Z,9.87
2022-12-08T00:42:41.841Z,6.33
2022-12-08T00:45:10.744Z,5.67
2022-12-08T00:47:39.090Z,6.27
2022-12-08T00:50:08.711Z,4.23
2022-12-08T00:52:37.122Z,8.33
2022-12-08T00:55:06.432Z,5.23
2022-12-08T00:57:36.618Z,7.40
2022-12-08T01:00:05.856Z,10.00
2022-12-08T01:02:34.696Z,5.80
2022-12-08T01:05:03.067Z,8.20
2022-12-08T01:07:31.466Z,8.90
2022-12-08T01:09:59.920Z,7.63
2022-12-08T01:12:30.365Z,6.93
2022-12-08T01:15:02.524Z,6.20
2022-12-08T01:17:31.334Z,8.67
2022-12-08T01:19:59.872Z,6.67
2022-12-08T01:22:28.569Z,4.10
2022-12-08T01:24:56.941Z,5.73
2022-12-08T01:27:25.391Z,9.97
2022-12-08T01:29:53.800Z,9.53
2022-12-08T01:32:23.477Z,7.87
2022-12-08T01:34:51.877Z,6.40
2022-12-08T01:37:20.398Z,7.87
2022-12-08T01:39:49.000Z,5.97
2022-12-08T01:42:22.030Z,7.60
2022-12-08T01:45:02.739Z,6.43
2022-12-08T01:47:38.363Z,5.47
2022-12-08T01:50:09.410Z,5.17
2022-12-08T01:52:39.957Z,4.37
2022-12-08T01:55:13.733Z,6.53
2022-12-08T01:57:45.286Z,5.60
2022-12-08T02:00:15.953Z,4.47
2022-12-08T02:02:54.626Z,7.23
2022-12-08T02:05:25.752Z,7.00
2022-12-08T02:07:55.531Z,9.60
2022-12-08T02:10:25.360Z,9.53
2022-12-08T02:12:56.806Z,9.63
2022-12-08T02:15:33.075Z,7.13
2022-12-08T02:18:16.998Z,9.77
2022-12-08T02:20:55.764Z,6.90
2022-12-08T02:23:32.802Z,6.63
2022-12-08T02:26:39.415Z,9.30
2022-12-08T02:29:44.519Z,7.93
2022-12-08T02:32:33.892Z,9.03
2022-12-08T02:35:10.476Z,7.47
2022-12-08T02:37:43.242Z,10.60
2022-12-08T02:40:18.555Z,8.90
2022-12-08T02:42:54.319Z,10.70
2022-12-08T02:45:27.352Z,11.97
2022-12-08T02:47:56.073Z,9.30
2022-12-08T02:50:25.704Z,7.87
2022-12-08T02:52:54.257Z,12.37
2022-12-08T02:55:27.604Z,12.80
2022-12-08T02:58:12.049Z,11.47
2022-12-08T03:00:49.811Z,13.50
2022-12-08T03:03:25.816Z,8.73
2022-12-08T03:06:05.644Z,8.73
2022-12-08T03:08:37.781Z,8.93
2022-12-08T03:11:11.587Z,7.70
2022-12-08T03:13:43.294Z,6.40
2022-12-08T03:16:16.116Z,5.73
2022-12-08T03:18:49.161Z,5.67
2022-12-08T03:21:20.651Z,7.00
2022-12-08T03:23:52.263Z,9.87
2022-12-08T03:26:26.229Z,8.70
2022-12-08T03:28:54.723Z,10.43
2022-12-08T03:31:26.524Z,9.20
2022-12-08T03:33:57.799Z,9.03
2022-12-08T03:36:27.793Z,8.87
2022-12-08T03:38:56.123Z,6.87
2022-12-08T03:41:24.682Z,5.87
2022-12-08T03:43:54.673Z,6.33
2022-12-08T03:48:51.847Z,5.97
2022-12-08T03:51:20.525Z,6.17
2022-12-08T03:53:50.511Z,5.53
2022-12-08T03:56:25.138Z,4.53
2022-12-08T03:58:53.774Z,8.77
2022-12-08T04:01:22.626Z,7.27
2022-12-08T04:03:51.261Z,4.87
2022-12-08T04:06:20.321Z,3.00
2022-12-08T04:08:50.372Z,4.90
2022-12-08T04:11:19.943Z,7.70
2022-12-08T04:13:48.558Z,3.70
2022-12-08T04:16:19.095Z,6.03
2022-12-08T04:18:47.603Z,6.20
2022-12-08T04:21:16.123Z,3.80
2022-12-08T04:23:44.588Z,4.73
2022-12-08T04:26:14.182Z,6.73
2022-12-08T04:28:42.555Z,5.93
2022-12-08T04:31:11.599Z,2.80
2022-12-08T04:33:40.418Z,4.03
2022-12-08T04:36:09.631Z,7.03
2022-12-08T04:38:37.888Z,4.67
2022-12-08T04:41:06.261Z,5.57
2022-12-08T04:43:37.199Z,3.17
2022-12-08T04:46:08.261Z,3.50
2022-12-08T04:48:38.342Z,3.90
2022-12-08T04:51:07.208Z,7.23
2022-12-08T04:53:35.812Z,4.53
2022-12-08T04:56:04.226Z,7.30
2022-12-08T04:58:32.532Z,10.70
2022-12-08T05:01:02.251Z,6.97
2022-12-08T05:03:30.793Z,6.83
2022-12-08T05:06:01.440Z,7.47
2022-12-08T05:08:30.027Z,4.77
2022-12-08T05:11:03.980Z,5.87
2022-12-08T05:13:32.793Z,6.57
2022-12-08T05:16:07.390Z,4.93
2022-12-08T05:18:36.094Z,8.53
2022-12-08T05:21:05.270Z,9.97
2022-12-08T05:23:34.271Z,5.97
2022-12-08T05:26:02.924Z,4.40
2022-12-08T05:28:46.863Z,5.47
2022-12-08T05:31:18.117Z,4.07
2022-12-08T05:33:46.691Z,5.27
2022-12-08T05:36:16.060Z,7.77
2022-12-08T05:38:44.842Z,6.47
2022-12-08T05:41:16.493Z,7.40
2022-12-08T05:43:45.047Z,4.33
2022-12-08T05:46:14.065Z,5.43
2022-12-08T05:48:43.935Z,6.63
2022-12-08T05:51:18.605Z,4.50
2022-12-08T05:53:47.725Z,5.63
2022-12-08T05:56:16.540Z,4.97
2022-12-08T05:58:45.336Z,5.47
2022-12-08T06:01:20.847Z,4.57
2022-12-08T06:03:50.906Z,4.10
2022-12-08T06:06:19.348Z,3.57
2022-12-08T06:08:47.845Z,4.23
2022-12-08T06:11:20.422Z,5.00
2022-12-08T06:13:48.975Z,5.77
2022-12-08T06:16:17.668Z,4.73
2022-12-08T06:18:46.736Z,3.90
2022-12-08T06:21:17.480Z,3.53
2022-12-08T06:23:48.824Z,9.50
2022-12-08T06:26:17.466Z,6.97
2022-12-08T06:28:46.004Z,5.17
2022-12-08T06:31:17.258Z,6.87
2022-12-08T06:33:46.011Z,4.13
2022-12-08T06:36:17.500Z,5.23
2022-12-08T06:38:46.125Z,2.70
2022-12-08T06:41:15.143Z,5.40
2022-12-08T06:43:44.286Z,5.57
2022-12-08T06:46:15.452Z,6.27
2022-12-08T06:48:43.865Z,3.03
2022-12-08T06:51:14.031Z,4.20
2022-12-08T06:53:44.946Z,3.57
2022-12-08T06:56:14.050Z,3.53
2022-12-08T06:58:46.174Z,1.97
2022-12-08T07:01:22.976Z,2.97
2022-12-08T07:03:51.416Z,2.50
2022-12-08T07:06:23.786Z,5.13
2022-12-08T07:08:53.477Z,3.93
2022-12-08T07:11:22.684Z,3.73
2022-12-08T07:13:51.590Z,6.40
2022-12-08T07:16:19.973Z,3.17
2022-12-08T07:18:48.482Z,4.23
2022-12-08T07:21:19.234Z,4.70
2022-12-08T07:23:54.384Z,7.13
2022-12-08T07:26:27.370Z,3.80
2022-12-08T07:28:57.768Z,5.67
2022-12-08T07:31:29.288Z,4.27
2022-12-08T07:33:58.382Z,3.93
2022-12-08T07:36:26.798Z,5.17
2022-12-08T07:38:55.415Z,6.50
2022-12-08T07:41:28.056Z,7.37
2022-12-08T07:43:57.384Z,4.87
2022-12-08T07:46:27.158Z,6.07
2022-12-08T07:49:08.304Z,7.40
2022-12-08T07:51:36.792Z,8.30
2022-12-08T07:54:05.273Z,8.63
2022-12-08T07:56:35.529Z,8.67
2022-12-08T07:59:04.273Z,5.07
2022-12-08T08:01:35.125Z,7.27
2022-12-08T08:04:05.479Z,6.20
2022-12-08T08:06:34.738Z,6.50
2022-12-08T08:09:03.068Z,6.43
2022-12-08T08:11:31.587Z,5.90
2022-12-08T08:14:01.249Z,8.00
2022-12-08T08:16:34.938Z,6.50
2022-12-08T08:19:06.663Z,6.57
2022-12-08T08:21:50.493Z,6.30
2022-12-08T08:24:18.960Z,8.17
2022-12-08T08:26:47.350Z,4.63
2022-12-08T08:29:16.899Z,9.97
2022-12-08T08:31:45.296Z,9.00
2022-12-08T08:34:14.106Z,4.87
2022-12-08T08:36:45.057Z,4.47
2022-12-08T08:39:13.756Z,6.80
2022-12-08T08:41:46.707Z,5.37
2022-12-08T08:44:16.315Z,5.97
2022-12-08T08:46:45.011Z,7.87
2022-12-08T08:49:13.479Z,7.03
2022-12-08T08:51:41.936Z,5.53
2022-12-08T08:54:10.356Z,5.23
2022-12-08T08:56:38.676Z,8.73
2022-12-08T08:59:07.099Z,6.97
2022-12-08T09:01:36.688Z,4.17
2022-12-08T09:04:05.454Z,3.13
2022-12-08T09:06:33.915Z,4.63
2022-12-08T09:09:02.226Z,8.97
2022-12-08T09:11:30.736Z,8.73
2022-12-08T09:13:59.579Z,7.60
2022-12-08T09:16:29.059Z,5.90
2022-12-08T09:18:58.582Z,8.87
2022-12-08T09:21:27.676Z,12.37
2022-12-08T09:23:58.127Z,10.30
2022-12-08T09:26:27.110Z,7.37
2022-12-08T09:28:56.717Z,4.83
2022-12-08T09:31:25.740Z,9.80
2022-12-08T09:33:54.240Z,6.90
2022-12-08T09:36:23.904Z,12.47
2022-12-08T09:38:53.836Z,10.20
2022-12-08T09:41:37.901Z,7.27
2022-12-08T09:44:32.781Z,5.70
2022-12-08T09:47:03.188Z,8.87
2022-12-08T09:49:37.975Z,5.30
2022-12-08T09:52:14.327Z,5.97
2022-12-08T09:54:42.774Z,8.87
2022-12-08T09:57:18.092Z,4.67
2022-12-08T09:59:50.850Z,8.13
2022-12-08T10:02:24.181Z,10.37
2022-12-08T10:04:55.382Z,6.67
2022-12-08T10:07:33.179Z,7.80
2022-12-08T10:10:07.063Z,7.43
2022-12-08T10:12:41.666Z,4.50
2022-12-08T10:15:31.938Z,4.87
2022-12-08T10:18:03.347Z,5.23
2022-12-08T10:20:38.257Z,6.83
2022-12-08T10:23:11.514Z,7.33
2022-12-08T10:25:42.546Z,3.67
2022-12-08T10:28:11.257Z,7.23
2022-12-08T10:30:39.608Z,7.00
2022-12-08T10:33:15.290Z,8.97
2022-12-08T10:35:48.626Z,11.87
2022-12-08T10:38:24.625Z,6.40
2022-12-08T10:40:55.677Z,5.90
2022-12-08T10:43:27.214Z,7.95
2022-12-08T10:45:55.851Z,4.23
2022-12-08T10:48:27.750Z,8.50
2022-12-08T10:50:58.338Z,7.40
2022-12-08T10:53:29.753Z,5.53
2022-12-08T10:56:08.843Z,5.30
2022-12-08T10:58:40.778Z,6.63
2022-12-08T11:01:14.093Z,12.83
2022-12-08T11:03:48.664Z,9.43
2022-12-08T11:06:20.245Z,10.53
2022-12-08T11:08:52.567Z,7.87
2022-12-08T11:11:29.047Z,4.53
2022-12-08T11:13:58.437Z,8.27
2022-12-08T11:16:26.924Z,6.10
2022-12-08T11:18:59.546Z,4.57
2022-12-08T11:21:38.048Z,6.93
2022-12-08T11:24:24.381Z,5.87
2022-12-08T11:26:55.970Z,9.77
2022-12-08T11:29:24.167Z,2.33
2022-12-08T11:31:58.600Z,5.23
2022-12-08T11:34:34.906Z,4.43
2022-12-08T11:37:06.033Z,6.13
2022-12-08T11:39:41.800Z,6.93
2022-12-08T11:42:14.116Z,5.50
2022-12-08T11:44:48.410Z,5.67
2022-12-08T11:47:21.465Z,7.03
2022-12-08T11:49:56.821Z,6.23
2022-12-08T11:52:33.671Z,7.70
2022-12-08T11:55:08.143Z,4.33
2022-12-08T11:57:36.716Z,6.70
2022-12-08T12:00:07.014Z,4.67
2022-12-08T12:02:43.016Z,2.07
2022-12-08T12:05:47.426Z,9.67
2022-12-08T12:08:32.640Z,4.57
2022-12-08T12:11:11.228Z,7.97
2022-12-08T12:14:03.587Z,6.67
2022-12-08T12:16:51.198Z,5.53
2022-12-08T12:19:22.096Z,10.27
2022-12-08T12:21:54.042Z,4.67
2022-12-08T12:24:28.432Z,6.53
2022-12-08T12:27:04.850Z,7.10
2022-12-08T12:29:35.731Z,5.60
2022-12-08T12:32:07.286Z,7.00
2022-12-08T12:34:38.976Z,4.60
2022-12-08T12:37:10.393Z,4.53
2022-12-08T12:39:56.146Z,9.07
2022-12-08T12:42:41.631Z,3.87
2022-12-08T12:45:27.092Z,5.43
2022-12-08T12:48:22.094Z,8.30
2022-12-08T12:50:51.515Z,6.97
2022-12-08T12:53:52.072Z,7.73
2022-12-08T12:56:55.674Z,4.13
2022-12-08T12:59:36.305Z,9.10
2022-12-08T13:02:04.978Z,4.87
2022-12-08T13:04:36.494Z,5.50
2022-12-08T13:07:05.724Z,7.77
2022-12-08T13:09:37.952Z,7.53
2022-12-08T13:12:11.747Z,7.37
2022-12-08T13:14:47.726Z,5.43
2022-12-08T13:17:21.305Z,7.70
2022-12-08T13:19:58.896Z,8.60
2022-12-08T13:22:51.241Z,8.77
2022-12-08T13:25:48.062Z,5.57
2022-12-08T13:28:25.068Z,10.17
2022-12-08T13:30:55.476Z,8.87
2022-12-08T13:33:30.385Z,5.80
2022-12-08T13:36:08.888Z,5.00
2022-12-08T13:38:44.144Z,4.90
2022-12-08T13:41:18.819Z,5.40
2022-12-08T13:44:20.597Z,7.43
2022-12-08T13:47:09.920Z,3.93
2022-12-08T13:58:19.491Z,5.50
2022-12-08T14:00:58.382Z,6.87
2022-12-08T14:03:28.147Z,9.03
2022-12-08T14:06:14.668Z,9.47
2022-12-08T14:09:10.382Z,9.60
2022-12-08T14:11:40.874Z,5.97
2022-12-08T14:14:14.513Z,5.80
2022-12-08T14:16:54.130Z,11.90
2022-12-08T14:19:25.667Z,12.17
2022-12-08T14:21:58.993Z,8.07
2022-12-08T14:24:28.238Z,11.40
2022-12-08T14:26:59.254Z,10.00
2022-12-08T14:29:44.537Z,14.60
2022-12-08T14:32:28.585Z,3.80
2022-12-08T14:35:00.789Z,15.03
2022-12-08T14:37:33.337Z,8.57
2022-12-08T14:40:08.606Z,14.83
2022-12-08T14:42:45.573Z,8.33
2022-12-08T14:45:17.016Z,14.40
2022-12-08T14:47:48.646Z,12.67
2022-12-08T14:50:41.431Z,9.47
2022-12-08T14:53:15.192Z,11.40
2022-12-08T14:55:46.042Z,9.83
2022-12-08T14:58:22.124Z,7.00
2022-12-08T15:00:52.367Z,8.83
2022-12-08T15:03:24.108Z,10.47
2022-12-08T15:05:59.405Z,6.53
2022-12-08T15:08:27.909Z,7.23
2022-12-08T15:11:18.707Z,14.57
2022-12-08T15:13:49.489Z,7.70
2022-12-08T15:16:28.746Z,10.23
2022-12-08T15:19:19.685Z,11.17
2022-12-08T15:21:52.659Z,9.13
2022-12-08T15:24:23.039Z,7.20
2022-12-08T15:26:54.570Z,9.43
2022-12-08T15:29:27.673Z,7.80
2022-12-08T15:31:58.096Z,6.13
2022-12-08T15:34:26.508Z,7.20
2022-12-08T15:36:56.677Z,6.47
2022-12-08T15:39:33.810Z,5.07
2022-12-08T15:42:04.687Z,8.37
2022-12-08T15:44:36.603Z,9.10
2022-12-08T15:47:08.039Z,7.93
2022-12-08T15:49:41.386Z,9.23
2022-12-08T15:52:17.590Z,8.73
2022-12-08T15:54:46.167Z,12.10
2022-12-08T15:57:44.110Z,7.80
2022-12-08T16:03:59.860Z,11.43
2022-12-08T16:09:14.504Z,5.40
2022-12-08T16:12:09.913Z,8.17
2022-12-08T16:17:28.814Z,5.87
2022-12-08T16:19:57.854Z,7.80
2022-12-08T16:25:19.925Z,10.13
2022-12-08T16:30:38.583Z,7.90
2022-12-08T16:33:07.189Z,9.13
2022-12-08T16:35:35.539Z,9.00
2022-12-08T16:38:05.417Z,7.93
2022-12-08T16:40:56.629Z,10.80
2022-12-08T16:43:24.516Z,10.03
2022-12-08T16:45:53.082Z,9.47
2022-12-08T16:48:22.492Z,13.67
2022-12-08T16:50:50.851Z,12.73
2022-12-08T16:53:19.263Z,9.17
2022-12-08T16:55:50.039Z,10.63
2022-12-08T16:58:20.594Z,10.17
2022-12-08T17:00:49.052Z,13.23
2022-12-08T17:03:17.974Z,8.17
2022-12-08T17:05:51.273Z,8.37
2022-12-08T17:08:19.875Z,11.37
2022-12-08T17:11:07.274Z,11.53
2022-12-08T17:13:36.487Z,9.53
2022-12-08T17:16:09.813Z,6.30
2022-12-08T17:18:38.294Z,11.07
2022-12-08T17:21:11.592Z,6.67
2022-12-08T17:23:42.163Z,9.80
2022-12-08T17:26:12.495Z,10.43
2022-12-08T17:29:00.104Z,8.87
2022-12-08T17:31:31.116Z,10.07
2022-12-08T17:34:00.244Z,8.37
2022-12-08T17:36:28.691Z,11.07
2022-12-08T17:38:57.507Z,17.37
2022-12-08T17:41:27.122Z,10.60
2022-12-08T17:43:55.586Z,14.57
2022-12-08T17:46:24.933Z,9.63
2022-12-08T17:48:53.713Z,9.43
2022-12-08T17:51:22.331Z,8.13
2022-12-08T17:53:51.289Z,8.57
2022-12-08T17:56:21.874Z,8.70
2022-12-08T17:58:54.877Z,8.23
2022-12-08T18:01:24.090Z,10.70
2022-12-08T18:03:53.029Z,22.77
2022-12-08T18:06:22.346Z,11.67
2022-12-08T18:08:52.062Z,13.17
2022-12-08T18:11:21.090Z,18.67
2022-12-08T18:13:52.401Z,15.97
2022-12-08T18:16:23.122Z,7.17
2022-12-08T18:18:51.777Z,15.53
2022-12-08T18:21:23.624Z,18.73
2022-12-08T18:23:52.814Z,8.57
2022-12-08T18:26:21.494Z,7.07
2022-12-08T18:28:51.169Z,9.07
2022-12-08T18:31:21.647Z,15.60
2022-12-08T18:33:50.858Z,5.63
2022-12-08T18:36:23.061Z,17.17
2022-12-08T18:38:52.007Z,12.20
2022-12-08T18:41:23.340Z,11.77
2022-12-08T18:43:53.579Z,8.07
2022-12-08T18:46:22.407Z,6.90
2022-12-08T18:48:52.202Z,10.17
2022-12-08T18:51:23.068Z,6.00
2022-12-08T18:53:52.023Z,6.33
2022-12-08T18:56:23.224Z,8.80
2022-12-08T18:58:53.023Z,9.17
2022-12-08T19:01:21.451Z,10.37
2022-12-08T19:04:20.019Z,5.37
2022-12-08T19:06:40.086Z,5.97
2022-12-08T19:09:09.010Z,8.10
2022-12-08T19:11:37.711Z,8.10
2022-12-08T19:14:07.811Z,12.80
2022-12-08T19:16:36.441Z,8.27
2022-12-08T19:19:05.143Z,9.20
2022-12-08T19:21:34.159Z,5.30
2022-12-08T19:24:05.250Z,5.73
2022-12-08T19:26:33.652Z,6.57
2022-12-08T19:29:02.120Z,6.73
2022-12-08T19:31:31.956Z,5.67
2022-12-08T19:34:00.539Z,9.40
2022-12-08T19:36:35.267Z,8.00
2022-12-08T19:39:21.250Z,9.03
2022-12-08T19:42:06.991Z,6.93
2022-12-08T19:44:53.609Z,17.27
2022-12-08T19:47:24.539Z,14.30
2022-12-08T19:49:53.911Z,9.27
2022-12-08T19:52:22.610Z,18.13
2022-12-08T19:54:51.129Z,13.17
2022-12-08T19:57:20.485Z,6.87
2022-12-08T19:59:56.325Z,9.13
2022-12-08T20:02:26.804Z,7.53
2022-12-08T20:04:55.307Z,7.13
2022-12-08T20:07:23.548Z,8.90
2022-12-08T20:09:51.953Z,9.23
2022-12-08T20:12:20.305Z,9.90
2022-12-08T20:14:48.625Z,8.13
2022-12-08T20:17:17.219Z,8.40
2022-12-08T20:19:46.873Z,15.40
2022-12-08T20:22:15.283Z,14.67
2022-12-08T20:24:43.696Z,12.13
2022-12-08T20:27:11.984Z,11.87
2022-12-08T20:29:40.486Z,13.07
2022-12-08T20:32:09.715Z,14.07
2022-12-08T20:34:38.498Z,9.83
2022-12-08T20:37:08.412Z,11.97
2022-12-08T20:39:36.864Z,12.03
2022-12-08T20:42:05.591Z,10.80
2022-12-08T20:44:34.060Z,18.37
2022-12-08T20:47:02.769Z,34.93
2022-12-08T20:49:34.609Z,13.87
2022-12-08T20:52:03.615Z,12.77
2022-12-08T20:54:33.444Z,14.70
2022-12-08T20:57:01.782Z,10.90
2022-12-08T20:59:30.244Z,14.73
2022-12-08T21:02:00.390Z,20.33
2022-12-08T21:04:29.458Z,17.40
2022-12-08T21:06:58.157Z,10.63
2022-12-08T21:09:26.988Z,7.80
2022-12-08T21:11:57.510Z,10.53
2022-12-08T21:14:25.849Z,11.43
2022-12-08T21:16:54.636Z,9.37
2022-12-08T21:19:24.106Z,11.60
2022-12-08T21:21:52.819Z,12.23
2022-12-08T21:24:21.647Z,15.33
2022-12-08T21:26:50.131Z,14.13
2022-12-08T21:29:20.230Z,13.20
2022-12-08T21:31:48.700Z,10.63
2022-12-08T21:34:17.342Z,11.67
2022-12-08T21:36:45.806Z,11.03
2022-12-08T21:39:14.355Z,10.07
2022-12-08T21:42:00.362Z,10.90
2022-12-08T21:44:30.370Z,11.97
2022-12-08T21:46:59.085Z,10.33
2022-12-08T21:49:27.843Z,13.43
2022-12-08T21:51:56.631Z,11.27
2022-12-08T21:54:25.319Z,15.70
2022-12-08T21:56:53.814Z,11.53
2022-12-08T21:59:22.600Z,16.30
2022-12-08T22:01:52.616Z,18.90
2022-12-08T22:04:22.502Z,13.67
2022-12-08T22:06:51.077Z,14.63
2022-12-08T22:09:20.089Z,19.50
2022-12-08T22:11:48.696Z,18.17
2022-12-08T22:14:17.452Z,23.17
2022-12-08T22:16:46.116Z,19.30
2022-12-08T22:19:16.005Z,20.60
2022-12-08T22:21:44.465Z,16.10
2022-12-08T22:24:12.993Z,17.33
2022-12-08T22:26:41.732Z,17.10
2022-12-08T22:29:10.356Z,18.63
2022-12-08T22:31:39.379Z,24.57
2022-12-08T22:34:07.982Z,22.53
2022-12-08T22:36:37.818Z,24.53
2022-12-08T22:39:06.251Z,24.60
2022-12-08T22:41:34.914Z,27.43
2022-12-08T22:44:05.984Z,19.33
2022-12-08T22:46:34.845Z,23.03
2022-12-08T22:49:03.312Z,19.13
2022-12-08T22:51:31.685Z,23.50
2022-12-08T22:54:01.671Z,22.73
2022-12-08T22:56:30.142Z,26.10
2022-12-08T22:58:59.582Z,21.47
2022-12-08T23:01:30.068Z,21.83
2022-12-08T23:03:59.275Z,24.37
2022-12-08T23:06:28.539Z,28.17
2022-12-08T23:08:57.269Z,23.17
2022-12-08T23:11:29.363Z,22.90
2022-12-08T23:14:00.013Z,28.10
2022-12-08T23:16:29.029Z,26.33
2022-12-08T23:18:57.515Z,31.20
2022-12-08T23:21:25.941Z,25.50
2022-12-08T23:23:54.758Z,23.97
2022-12-08T23:26:24.937Z,25.60
2022-12-08T23:28:55.079Z,23.40
2022-12-08T23:31:24.270Z,24.40
2022-12-08T23:33:53.340Z,25.37
2022-12-08T23:36:23.096Z,26.73
2022-12-08T23:38:51.475Z,25.37
2022-12-08T23:41:20.200Z,25.80
2022-12-08T23:43:50.387Z,21.60
2022-12-08T23:46:21.818Z,24.37
2022-12-08T23:48:50.522Z,20.60
2022-12-08T23:51:19.104Z,23.53
2022-12-08T23:53:47.993Z,23.33
2022-12-08T23:56:17.964Z,25.73
2022-12-08T23:58:47.746Z,24.60
